Time;durP1;ratioP1;P1;durP2;ratioP2;P2;SDS_P1;SDS_P2;PMS_P1;PMS_P2;Temp;Humidity;BMP_temperature;BMP_pressure;BME280_temperature;BME280_humidity;BME280_pressure;Samples;Min_cycle;Max_cycle;Signal;HPM_P1;HPM_P2
2022/04/05 00:02:16;;;;;;;15.43;9.95;;;;;;;1.07;75.68;97231.94;5093094;28;20016;-76
2022/04/05 00:04:41;;;;;;;21.70;11.75;;;;;;;1.01;75.20;97228.44;5092970;28;20366;-77
2022/04/05 00:07:07;;;;;;;18.00;10.73;;;;;;;0.92;75.04;97221.91;5092921;28;20466;-77
2022/04/05 00:09:33;;;;;;;16.42;9.82;;;;;;;0.82;75.75;97222.66;5091641;28;20020;-77
2022/04/05 00:11:58;;;;;;;14.80;9.82;;;;;;;0.71;76.62;97205.59;5092995;28;20020;-77
2022/04/05 00:14:24;;;;;;;18.30;10.05;;;;;;;0.62;76.51;97199.91;5092812;28;20069;-77
2022/04/05 00:16:49;;;;;;;15.73;10.35;;;;;;;0.57;77.56;97205.28;5092684;28;20020;-78
2022/04/05 00:19:15;;;;;;;16.92;9.88;;;;;;;0.49;76.31;97195.81;5092558;28;20099;-77
2022/04/05 00:21:41;;;;;;;16.95;10.63;;;;;;;0.44;77.27;97206.56;5092727;28;20437;-77
2022/04/05 00:24:07;;;;;;;16.92;10.80;;;;;;;0.36;78.13;97207.06;5092890;28;20048;-77
2022/04/05 00:26:32;;;;;;;16.83;11.15;;;;;;;0.29;77.50;97197.31;5092581;28;20115;-77
2022/04/05 00:28:58;;;;;;;17.48;11.27;;;;;;;0.29;78.04;97205.41;5092531;28;20020;-77
2022/04/05 00:31:23;;;;;;;14.25;9.60;;;;;;;0.27;77.94;97199.44;5092590;28;20024;-77
2022/04/05 00:33:49;;;;;;;18.55;10.75;;;;;;;0.28;78.28;97211.06;5092659;28;20397;-77
2022/04/05 00:36:14;;;;;;;19.50;11.88;;;;;;;0.27;79.07;97188.66;5092864;28;20023;-77
2022/04/05 00:38:40;;;;;;;19.25;11.20;;;;;;;0.26;78.99;97189.72;5092770;28;20039;-77
2022/04/05 00:41:06;;;;;;;18.58;11.23;;;;;;;0.30;79.24;97184.66;5092676;28;20027;-77
2022/04/05 00:43:31;;;;;;;18.55;10.68;;;;;;;0.31;80.64;97180.06;5091011;28;20094;-77
2022/04/05 00:45:57;;;;;;;18.25;11.45;;;;;;;0.30;80.77;97184.66;5092251;28;20481;-78
2022/04/05 00:48:43;;;;;;;21.25;11.70;;;;;;;0.32;81.42;97179.81;5093670;28;20466;-77
2022/04/05 00:51:08;;;;;;;19.13;11.10;;;;;;;0.32;81.21;97165.50;5091654;28;20555;-78
2022/04/05 00:53:35;;;;;;;21.73;13.25;;;;;;;0.34;81.30;97163.34;5092476;28;20056;-77
2022/04/05 00:56:03;;;;;;;19.45;11.60;;;;;;;0.38;82.43;97167.16;5092340;28;20749;-77
2022/04/05 00:58:30;;;;;;;21.25;12.57;;;;;;;0.40;81.68;97165.00;5092049;28;20028;-76
2022/04/05 01:00:57;;;;;;;22.20;13.15;;;;;;;0.41;81.71;97167.41;5092291;28;20377;-77
2022/04/05 01:03:23;;;;;;;20.85;13.30;;;;;;;0.44;81.63;97174.19;5091992;28;20017;-77
2022/04/05 01:05:51;;;;;;;21.30;13.52;;;;;;;0.49;81.81;97166.13;5091996;28;20462;-77
2022/04/05 01:08:18;;;;;;;22.52;13.40;;;;;;;0.52;82.27;97156.69;5091983;28;20016;-77
2022/04/05 01:10:45;;;;;;;25.92;16.13;;;;;;;0.55;81.90;97154.28;5091992;28;20027;-77
2022/04/05 01:13:10;;;;;;;25.15;14.15;;;;;;;0.59;81.95;97149.16;5091403;28;20424;-77
2022/04/05 01:15:36;;;;;;;18.58;12.23;;;;;;;0.62;81.16;97148.66;5092030;28;20020;-77
2022/04/05 01:18:01;;;;;;;20.25;12.70;;;;;;;0.67;81.48;97153.25;5091932;28;20048;-77
2022/04/05 01:20:26;;;;;;;22.85;14.15;;;;;;;0.69;81.52;97146.53;5091431;28;20470;-77
2022/04/05 01:22:55;;;;;;;21.15;12.48;;;;;;;0.70;81.89;97150.00;5091889;28;20031;-77
2022/04/05 01:25:21;;;;;;;21.00;13.20;;;;;;;0.74;82.27;97151.09;5091708;28;20385;-77
2022/04/05 01:27:48;;;;;;;16.77;11.65;;;;;;;0.77;82.33;97137.09;5091441;28;20024;-77
2022/04/05 01:30:14;;;;;;;19.42;12.80;;;;;;;0.81;82.03;97145.50;5091612;28;20454;-76
2022/04/05 01:32:40;;;;;;;20.83;13.35;;;;;;;0.83;81.63;97140.59;5091976;28;20450;-76
2022/04/05 01:35:07;;;;;;;19.52;12.82;;;;;;;0.86;81.93;97135.50;5091627;28;20032;-76
2022/04/05 01:37:32;;;;;;;20.02;12.60;;;;;;;0.88;81.60;97133.34;5088325;28;20022;-77
2022/04/05 01:39:58;;;;;;;18.70;12.13;;;;;;;0.92;81.73;97136.31;5091429;28;20106;-77
2022/04/05 01:42:24;;;;;;;20.35;12.30;;;;;;;0.97;82.25;97141.75;5091194;28;20416;-76
2022/04/05 01:44:49;;;;;;;19.58;12.77;;;;;;;0.99;82.06;97141.50;5091056;28;20020;-76
2022/04/05 01:47:16;;;;;;;19.13;12.90;;;;;;;1.03;81.63;97134.44;5091007;28;20020;-76
2022/04/05 01:49:44;;;;;;;17.85;11.43;;;;;;;1.07;81.39;97140.16;5090948;28;20497;-76
2022/04/05 01:52:11;;;;;;;19.08;11.23;;;;;;;1.11;81.77;97142.03;5090716;28;20024;-76
2022/04/05 01:54:38;;;;;;;17.20;11.82;;;;;;;1.11;82.49;97136.63;5090956;28;20478;-76
2022/04/05 01:57:04;;;;;;;21.30;13.68;;;;;;;1.13;82.01;97139.88;5090848;28;20098;-75
2022/04/05 01:59:32;;;;;;;21.10;13.57;;;;;;;1.16;81.85;97133.16;5087792;28;20545;-75
2022/04/05 02:01:57;;;;;;;22.98;14.63;;;;;;;1.18;81.39;97137.19;5090642;28;20524;-76
2022/04/05 02:04:23;;;;;;;23.73;14.18;;;;;;;1.19;81.57;97140.72;5090189;28;20020;-75
2022/04/05 02:06:49;;;;;;;24.48;14.75;;;;;;;1.19;81.83;97129.91;5090479;28;20055;-76
2022/04/05 02:09:16;;;;;;;21.80;14.73;;;;;;;1.19;82.08;97128.00;5091337;28;20048;-76
2022/04/05 02:11:46;;;;;;;25.63;15.77;;;;;;;1.19;82.18;97130.72;5091822;28;20020;-75
2022/04/05 02:14:13;;;;;;;23.67;14.45;;;;;;;1.21;82.04;97118.81;5091653;28;20082;-76
2022/04/05 02:16:39;;;;;;;23.02;15.68;;;;;;;1.20;81.93;97115.31;5090899;28;20027;-76
2022/04/05 02:19:05;;;;;;;25.65;16.15;;;;;;;1.21;81.93;97116.94;5090922;28;20024;-76
2022/04/05 02:21:30;;;;;;;25.77;16.02;;;;;;;1.22;81.97;97112.34;5090962;28;20077;-76
2022/04/05 02:23:55;;;;;;;26.98;17.25;;;;;;;1.24;82.55;97107.50;5090811;28;20413;-76
2022/04/05 02:26:21;;;;;;;21.15;13.05;;;;;;;1.27;82.92;97106.94;5090445;28;20497;-75
2022/04/05 02:28:48;;;;;;;25.88;16.67;;;;;;;1.25;82.46;97098.31;5090550;28;20020;-76
2022/04/05 02:31:14;;;;;;;26.50;14.00;;;;;;;1.26;82.73;97106.13;5091254;28;20028;-75
2022/04/05 02:33:40;;;;;;;23.80;15.32;;;;;;;1.28;81.99;97106.66;5091476;28;20035;-76
2022/04/05 02:36:05;;;;;;;28.63;17.50;;;;;;;1.29;82.68;97096.69;5091481;28;20095;-75
2022/04/05 02:38:31;;;;;;;24.83;16.08;;;;;;;1.34;83.01;97091.28;5091849;28;20062;-75
2022/04/05 02:40:57;;;;;;;25.75;15.77;;;;;;;1.35;82.41;97103.72;5091426;28;20579;-75
2022/04/05 02:43:23;;;;;;;24.52;15.18;;;;;;;1.33;82.64;97106.69;5091002;28;20044;-75
2022/04/05 02:45:49;;;;;;;22.52;14.85;;;;;;;1.37;81.99;97106.13;5091212;28;20035;-75
2022/04/05 02:48:15;;;;;;;23.77;16.10;;;;;;;1.41;82.34;97104.53;5091128;28;20341;-75
2022/04/05 02:50:40;;;;;;;25.80;15.63;;;;;;;1.43;83.11;97113.97;5089777;28;20024;-75
2022/04/05 02:53:05;;;;;;;23.90;14.88;;;;;;;1.46;82.09;97113.44;5089269;28;20027;-75
2022/04/05 02:55:31;;;;;;;21.90;14.32;;;;;;;1.50;82.31;97108.31;5090948;28;20036;-75
2022/04/05 02:57:56;;;;;;;21.15;13.98;;;;;;;1.53;81.98;97099.66;5091293;28;20020;-76
2022/04/05 03:00:22;;;;;;;20.98;13.82;;;;;;;1.57;82.27;97097.22;5090823;28;20061;-76
2022/04/05 03:02:47;;;;;;;22.15;13.85;;;;;;;1.59;81.81;97097.75;5091192;28;20034;-76
2022/04/05 03:05:18;;;;;;;22.67;14.20;;;;;;;1.56;81.58;97096.44;5090985;28;20062;-76
2022/04/05 03:07:43;;;;;;;26.40;15.35;;;;;;;1.58;81.82;97107.78;5091253;28;20126;-76
2022/04/05 03:10:10;;;;;;;26.70;16.75;;;;;;;1.58;82.03;97098.84;5090826;28;20466;-76
2022/04/05 03:12:36;;;;;;;19.67;11.90;;;;;;;1.58;82.05;97104.25;5091314;28;20028;-76
2022/04/05 03:15:07;;;;;;;24.15;14.68;;;;;;;1.59;82.09;97105.88;5090808;28;20043;-76
2022/04/05 03:17:33;;;;;;;22.42;13.70;;;;;;;1.60;81.80;97091.28;5090907;28;20432;-76
2022/04/05 03:20:03;;;;;;;21.63;14.60;;;;;;;1.59;82.28;97095.88;5090776;28;20042;-76
2022/04/05 03:22:29;;;;;;;20.92;13.43;;;;;;;1.60;82.51;97100.22;5090093;28;20103;-76
2022/04/05 03:24:54;;;;;;;21.25;13.05;;;;;;;1.60;82.60;97100.22;5090096;28;20102;-76
2022/04/05 03:27:20;;;;;;;23.65;13.88;;;;;;;1.61;81.83;97103.72;5089983;28;20363;-77
2022/04/05 03:29:45;;;;;;;22.83;13.23;;;;;;;1.62;81.76;97097.22;5089479;28;20445;-76
2022/04/05 03:32:11;;;;;;;22.02;14.32;;;;;;;1.64;82.11;97093.16;5090270;28;20024;-73
2022/04/05 03:34:38;;;;;;;17.92;12.73;;;;;;;1.67;82.15;97094.53;5090503;28;20042;-73
2022/04/05 03:37:03;;;;;;;20.98;12.90;;;;;;;1.69;82.20;97094.22;5090621;28;20020;-73
2022/04/05 03:39:29;;;;;;;21.65;13.45;;;;;;;1.72;81.88;97091.81;5090626;28;20029;-73
2022/04/05 03:41:54;;;;;;;19.95;12.70;;;;;;;1.72;82.18;97091.00;5090438;28;20604;-74
2022/04/05 03:44:20;;;;;;;20.77;13.32;;;;;;;1.74;81.72;97096.94;5089978;28;20096;-74
2022/04/05 03:46:48;;;;;;;20.45;12.23;;;;;;;1.76;82.12;97092.91;5090283;28;20119;-73
2022/04/05 03:49:14;;;;;;;19.80;12.43;;;;;;;1.81;81.48;97089.34;5090634;28;20024;-73
2022/04/05 03:51:39;;;;;;;19.25;12.18;;;;;;;1.82;81.77;97090.97;5090572;28;20066;-74
2022/04/05 03:54:05;;;;;;;21.70;13.75;;;;;;;1.86;81.73;97088.53;5090497;28;20028;-74
2022/04/05 03:56:30;;;;;;;22.02;13.68;;;;;;;1.85;81.90;97085.03;5090375;28;20028;-73
2022/04/05 03:58:56;;;;;;;20.67;12.38;;;;;;;1.84;81.48;97088.00;5090627;28;20032;-73
2022/04/05 04:01:21;;;;;;;18.83;12.38;;;;;;;1.82;81.65;97087.47;5092050;28;20036;-73
2022/04/05 04:03:46;;;;;;;18.95;11.75;;;;;;;1.83;81.26;97089.09;5094342;28;20469;-74
2022/04/05 04:06:12;;;;;;;18.17;11.15;;;;;;;1.87;81.82;97090.16;5094151;28;20131;-73
2022/04/05 04:08:37;;;;;;;17.75;11.40;;;;;;;1.89;82.17;97094.22;5094169;28;20501;-74
2022/04/05 04:11:03;;;;;;;18.77;12.30;;;;;;;1.91;81.12;97092.06;5094112;28;20107;-73
2022/04/05 04:13:28;;;;;;;18.90;12.48;;;;;;;1.92;81.15;97088.25;5093779;28;20040;-73
2022/04/05 04:15:56;;;;;;;16.40;11.23;;;;;;;1.95;81.34;97097.72;5093696;28;20429;-73
2022/04/05 04:18:21;;;;;;;22.40;12.82;;;;;;;2.00;81.26;97089.59;5093974;28;20028;-73
2022/04/05 04:20:48;;;;;;;21.65;13.75;;;;;;;1.98;81.17;97099.88;5093121;28;20031;-73
2022/04/05 04:23:15;;;;;;;18.40;12.10;;;;;;;1.99;80.54;97092.59;5093913;28;20038;-73
2022/04/05 04:25:40;;;;;;;19.48;12.20;;;;;;;1.99;80.93;97096.09;5093412;28;20032;-73
2022/04/05 04:28:10;;;;;;;18.85;11.77;;;;;;;2.00;80.62;97105.03;5093645;28;20102;-73
2022/04/05 04:30:37;;;;;;;20.00;13.03;;;;;;;2.01;81.18;97098.53;5093365;28;20023;-73
2022/04/05 04:33:03;;;;;;;20.17;13.38;;;;;;;1.99;80.58;97100.69;5093575;28;20111;-73
2022/04/05 04:35:29;;;;;;;14.63;10.55;;;;;;;1.98;80.93;97102.56;5092883;28;20381;-74
2022/04/05 04:37:55;;;;;;;18.95;12.00;;;;;;;2.02;80.53;97106.34;5093290;28;20028;-73
2022/04/05 04:40:21;;;;;;;17.02;11.50;;;;;;;2.03;81.09;97097.16;5093380;28;20024;-73
2022/04/05 04:42:47;;;;;;;17.70;11.57;;;;;;;2.01;80.87;97109.34;5093214;28;20131;-73
2022/04/05 04:45:13;;;;;;;20.73;13.00;;;;;;;2.03;80.70;97097.16;5092887;28;20040;-73
2022/04/05 04:47:39;;;;;;;18.25;12.25;;;;;;;2.04;80.60;97093.38;5092546;28;20032;-73
2022/04/05 04:50:05;;;;;;;19.67;12.55;;;;;;;2.05;80.10;97091.47;5092164;28;20440;-73
2022/04/05 04:52:31;;;;;;;19.98;12.68;;;;;;;2.10;81.17;97093.38;5092071;28;20016;-72
2022/04/05 04:54:56;;;;;;;16.17;11.65;;;;;;;2.11;80.60;97095.78;5091609;28;20024;-73
2022/04/05 04:57:23;;;;;;;19.75;11.38;;;;;;;2.13;80.39;97092.81;5093358;28;20078;-72
2022/04/05 04:59:49;;;;;;;17.98;10.77;;;;;;;2.15;80.17;97101.47;5093213;28;20101;-72
2022/04/05 05:02:15;;;;;;;20.10;12.95;;;;;;;2.13;79.92;97109.84;5092703;28;20466;-73
2022/04/05 05:04:40;;;;;;;20.92;13.13;;;;;;;2.15;80.87;97104.97;5092886;28;20024;-73
2022/04/05 05:07:06;;;;;;;19.58;12.20;;;;;;;2.17;81.03;97112.81;5093028;28;20482;-73
2022/04/05 05:09:31;;;;;;;19.83;12.55;;;;;;;2.21;80.78;97108.47;5092653;28;20028;-73
2022/04/05 05:11:57;;;;;;;20.13;13.48;;;;;;;2.20;80.30;97107.66;5091591;28;20024;-72
2022/04/05 05:14:22;;;;;;;21.40;13.43;;;;;;;2.24;81.00;97113.34;5092530;28;20023;-73
2022/04/05 05:16:48;;;;;;;22.15;13.30;;;;;;;2.25;80.93;97114.16;5091233;28;20024;-73
2022/04/05 05:19:13;;;;;;;23.33;14.70;;;;;;;2.24;80.89;97110.63;5092577;28;20457;-72
2022/04/05 05:21:38;;;;;;;23.17;13.85;;;;;;;2.27;81.00;97126.28;5092724;28;20016;-72
2022/04/05 05:24:04;;;;;;;22.85;14.85;;;;;;;2.28;80.35;97116.31;5092804;28;20028;-72
2022/04/05 05:26:29;;;;;;;24.63;15.02;;;;;;;2.29;81.06;97116.00;5092544;28;20032;-72
2022/04/05 05:28:56;;;;;;;23.40;14.23;;;;;;;2.29;80.37;97117.91;5092639;28;20035;-72
2022/04/05 05:31:22;;;;;;;23.08;13.90;;;;;;;2.31;79.86;97121.97;5092704;28;20027;-72
2022/04/05 05:33:47;;;;;;;23.65;14.95;;;;;;;2.33;80.69;97122.50;5092370;28;20427;-72
2022/04/05 05:36:13;;;;;;;24.15;16.20;;;;;;;2.36;80.24;97129.25;5092789;28;20450;-73
2022/04/05 05:38:38;;;;;;;62.85;25.55;;;;;;;2.37;81.24;97137.09;5092359;28;20526;-73
2022/04/05 05:41:04;;;;;;;24.25;15.02;;;;;;;2.35;80.52;97127.66;5092459;28;20024;-73
2022/04/05 05:43:30;;;;;;;27.00;16.88;;;;;;;2.37;81.23;97120.84;5092185;28;20093;-73
2022/04/05 05:45:55;;;;;;;28.95;15.50;;;;;;;2.39;81.17;97128.72;5092145;28;20024;-73
2022/04/05 05:48:21;;;;;;;29.98;17.77;;;;;;;2.42;80.77;97127.34;5091891;28;20103;-73
2022/04/05 05:50:46;;;;;;;29.65;18.25;;;;;;;2.42;81.32;97124.63;5092186;28;20435;-73
2022/04/05 05:53:12;;;;;;;29.63;17.48;;;;;;;2.44;81.01;97120.59;5091856;28;20041;-72
2022/04/05 05:55:38;;;;;;;29.10;16.23;;;;;;;2.48;81.10;97131.66;5091903;28;20020;-73
2022/04/05 05:58:04;;;;;;;27.55;15.75;;;;;;;2.48;80.78;97131.66;5092252;28;20035;-73
2022/04/05 06:00:30;;;;;;;32.10;17.83;;;;;;;2.50;81.12;97129.50;5091820;28;20012;-73
2022/04/05 06:03:00;;;;;;;24.02;14.55;;;;;;;2.55;80.55;97136.75;5091628;28;20478;-73
2022/04/05 06:05:26;;;;;;;25.90;15.18;;;;;;;2.52;81.02;97140.84;5092093;28;20035;-73
2022/04/05 06:07:52;;;;;;;24.77;15.15;;;;;;;2.52;80.87;97144.34;5092291;28;20028;-72
2022/04/05 06:10:18;;;;;;;27.05;16.67;;;;;;;2.55;80.96;97142.19;5092696;28;20032;-73
2022/04/05 06:12:46;;;;;;;24.92;14.60;;;;;;;2.57;80.91;97154.38;5091404;28;20503;-74
2022/04/05 06:15:13;;;;;;;20.58;12.88;;;;;;;2.57;81.67;97145.41;5091701;28;20131;-74
2022/04/05 06:17:48;;;;;;;24.30;14.88;;;;;;;2.54;81.34;97152.22;5091385;28;20035;-75
2022/04/05 06:20:17;;;;;;;22.35;13.98;;;;;;;2.56;81.36;97154.63;5091648;28;20032;-74
2022/04/05 06:22:47;;;;;;;21.95;13.65;;;;;;;2.60;81.67;97158.41;5091540;28;20016;-73
2022/04/05 06:25:15;;;;;;;24.10;13.52;;;;;;;2.64;81.63;97151.34;5089615;28;20115;-74
2022/04/05 06:27:40;;;;;;;20.60;12.63;;;;;;;2.67;81.57;97162.44;5090562;28;20024;-74
2022/04/05 06:30:07;;;;;;;18.70;12.38;;;;;;;2.70;81.31;97154.84;5090745;28;20034;-74
2022/04/05 06:32:33;;;;;;;19.17;12.95;;;;;;;2.72;80.92;97160.78;5090756;28;20046;-73
2022/04/05 06:34:59;;;;;;;16.95;12.45;;;;;;;2.74;80.73;97164.03;5087703;28;20035;-76
2022/04/05 06:37:25;;;;;;;15.00;10.38;;;;;;;2.78;81.28;97160.50;5090762;28;20067;-74
2022/04/05 06:39:50;;;;;;;16.08;11.32;;;;;;;2.80;81.59;97162.94;5090028;28;20044;-73
2022/04/05 06:42:16;;;;;;;15.75;10.32;;;;;;;2.85;81.37;97154.78;5090867;28;20046;-74
2022/04/05 06:44:41;;;;;;;16.42;11.52;;;;;;;2.91;81.52;97161.81;5089909;28;20058;-74
2022/04/05 06:47:08;;;;;;;13.10;9.40;;;;;;;2.94;80.85;97158.53;5090583;28;20115;-74
2022/04/05 06:49:34;;;;;;;14.20;9.35;;;;;;;2.96;80.41;97155.53;5090873;28;20024;-74
2022/04/05 06:51:59;;;;;;;13.48;9.50;;;;;;;2.96;80.43;97152.81;5091118;28;20032;-75
2022/04/05 06:54:25;;;;;;;14.93;9.73;;;;;;;2.96;80.67;97155.53;5091047;28;20030;-74
2022/04/05 06:56:50;;;;;;;13.20;8.52;;;;;;;2.98;81.12;97161.50;5090522;28;20023;-74
2022/04/05 06:59:15;;;;;;;20.35;10.77;;;;;;;2.98;80.39;97162.31;5090549;28;20050;-74
2022/04/05 07:01:41;;;;;;;15.10;8.82;;;;;;;2.97;80.98;97151.75;5091242;28;20028;-73
2022/04/05 07:04:06;;;;;;;12.60;9.18;;;;;;;2.98;80.45;97162.31;5091110;28;20055;-74
2022/04/05 07:06:32;;;;;;;14.43;9.82;;;;;;;3.02;80.52;97162.56;5089582;28;20028;-74
2022/04/05 07:08:58;;;;;;;14.15;9.45;;;;;;;3.04;81.77;97173.13;5090779;28;20034;-74
2022/04/05 07:11:23;;;;;;;14.48;10.00;;;;;;;3.05;80.87;97163.91;5091026;28;20028;-74
2022/04/05 07:13:51;;;;;;;12.60;8.23;;;;;;;3.08;81.58;97160.63;5091022;28;20171;-73
2022/04/05 07:16:17;;;;;;;16.15;9.85;;;;;;;3.06;80.99;97165.50;5090947;28;20081;-74
2022/04/05 07:18:43;;;;;;;11.10;8.18;;;;;;;3.12;81.49;97167.09;5091362;28;20047;-74
2022/04/05 07:21:08;;;;;;;17.63;10.93;;;;;;;3.13;80.91;97163.31;5090930;28;20036;-73
2022/04/05 07:23:36;;;;;;;17.10;10.07;;;;;;;3.18;80.97;97173.31;5087876;28;20020;-75
2022/04/05 07:26:01;;;;;;;15.32;9.48;;;;;;;3.18;80.12;97179.53;5090840;28;20032;-75
2022/04/05 07:28:27;;;;;;;14.68;9.52;;;;;;;3.15;80.41;97171.97;5090655;28;20021;-75
2022/04/05 07:30:52;;;;;;;13.88;9.55;;;;;;;3.14;81.14;97173.06;5090339;28;20077;-74
2022/04/05 07:33:18;;;;;;;14.82;9.60;;;;;;;3.13;80.36;97179.56;5090051;28;20024;-74
2022/04/05 07:35:44;;;;;;;12.27;8.07;;;;;;;3.17;81.12;97180.63;5091895;28;20032;-74
2022/04/05 07:38:09;;;;;;;12.57;8.40;;;;;;;3.21;80.60;97180.88;5094618;28;20099;-75
2022/04/05 07:40:50;;;;;;;12.98;8.00;;;;;;;3.24;80.90;97180.34;5094621;28;20024;-75
2022/04/05 07:43:27;;;;;;;14.38;9.25;;;;;;;3.28;80.57;97200.34;5094302;28;20130;-74
2022/04/05 07:45:53;;;;;;;14.43;9.07;;;;;;;3.30;81.13;97183.81;5090254;28;20032;-73
2022/04/05 07:48:22;;;;;;;14.25;9.23;;;;;;;3.35;80.42;97189.22;5094469;28;20103;-73
2022/04/05 07:50:48;;;;;;;13.88;8.85;;;;;;;3.42;80.91;97187.00;5094819;28;20024;-74
2022/04/05 07:53:14;;;;;;;12.73;8.60;;;;;;;3.51;80.62;97179.06;5092977;28;20020;-74
2022/04/05 07:55:40;;;;;;;12.30;8.45;;;;;;;3.62;80.67;97190.66;5088658;28;20123;-74
2022/04/05 07:58:05;;;;;;;13.27;9.38;;;;;;;3.62;79.99;97191.47;5093949;28;20028;-72
2022/04/05 08:00:31;;;;;;;14.00;8.73;;;;;;;3.66;80.25;97183.56;5094248;28;20458;-72
2022/04/05 08:02:57;;;;;;;16.05;11.57;;;;;;;3.71;79.71;97183.53;5094156;28;20028;-73
2022/04/05 08:05:23;;;;;;;17.45;11.02;;;;;;;3.82;80.37;97176.13;5093995;28;20042;-71
2022/04/05 08:07:50;;;;;;;12.45;8.30;;;;;;;3.90;79.58;97182.84;5089839;28;20401;-71
2022/04/05 08:10:15;;;;;;;30.45;20.90;;;;;;;3.93;80.28;97191.22;5093497;28;20036;-72
2022/04/05 08:12:46;;;;;;;18.17;12.57;;;;;;;3.94;79.66;97184.72;5094406;28;20023;-73
2022/04/05 08:15:20;;;;;;;34.40;20.67;;;;;;;3.99;79.39;97200.13;5093879;28;20509;-74
2022/04/05 08:17:46;;;;;;;21.23;14.27;;;;;;;4.04;79.88;97200.09;5094104;28;20027;-71
2022/04/05 08:20:13;;;;;;;16.42;9.90;;;;;;;3.98;79.41;97207.47;5092903;28;20036;-71
2022/04/05 08:22:39;;;;;;;12.13;8.40;;;;;;;3.90;79.20;97199.09;5089711;28;20033;-71
2022/04/05 08:25:06;;;;;;;10.93;7.90;;;;;;;3.87;79.49;97208.63;5093912;28;20103;-77
2022/04/05 08:27:31;;;;;;;10.73;7.30;;;;;;;3.90;79.09;97212.66;5093213;28;20139;-71
2022/04/05 08:29:57;;;;;;;12.73;8.68;;;;;;;3.90;79.57;97215.38;5092863;28;20478;-72
2022/04/05 08:32:22;;;;;;;13.90;9.55;;;;;;;3.91;79.36;97215.13;5092847;28;20490;-71
2022/04/05 08:34:48;;;;;;;11.57;8.18;;;;;;;3.97;79.09;97215.88;5093106;28;20031;-71
2022/04/05 08:37:14;;;;;;;16.08;11.95;;;;;;;4.04;79.28;97215.56;5092832;28;20535;-71
2022/04/05 08:39:40;;;;;;;12.75;9.18;;;;;;;4.07;79.03;97217.72;5091799;28;20016;-70
2022/04/05 08:42:07;;;;;;;14.93;11.05;;;;;;;4.17;79.28;97217.59;5092340;28;20024;-70
2022/04/05 08:44:33;;;;;;;17.40;13.35;;;;;;;4.26;79.52;97215.09;5092659;28;20024;-70
2022/04/05 08:47:00;;;;;;;21.70;13.50;;;;;;;4.29;79.15;97219.94;5091543;28;20035;-71
2022/04/05 08:49:28;;;;;;;15.82;9.95;;;;;;;4.27;78.92;97219.44;5092971;28;20051;-72
2022/04/05 08:51:54;;;;;;;16.45;9.32;;;;;;;4.30;79.09;97224.28;5093330;28;20069;-71
2022/04/05 08:54:19;;;;;;;13.25;8.80;;;;;;;4.35;78.37;97224.22;5092620;28;20036;-71
2022/04/05 08:56:46;;;;;;;13.77;8.93;;;;;;;4.39;78.88;97210.91;5092749;28;20032;-73
2022/04/05 08:59:11;;;;;;;16.02;9.05;;;;;;;4.44;77.88;97227.16;5092947;28;20417;-74
2022/04/05 09:01:38;;;;;;;13.25;8.70;;;;;;;4.47;78.35;97218.44;5092948;28;20024;-73
2022/04/05 09:04:04;;;;;;;14.50;9.38;;;;;;;4.55;79.04;97222.41;5092652;28;20024;-72
2022/04/05 09:06:32;;;;;;;12.13;8.55;;;;;;;4.56;78.42;97221.31;5093087;28;20377;-71
2022/04/05 09:09:14;;;;;;;29.52;14.45;;;;;;;4.55;78.53;97234.06;5092516;28;20039;-71
2022/04/05 09:11:45;;;;;;;32.83;20.45;;;;;;;4.50;77.78;97236.03;5091445;28;20595;-71
2022/04/05 09:14:11;;;;;;;22.95;15.63;;;;;;;4.48;78.56;97230.91;5092158;28;20024;-71
2022/04/05 09:16:37;;;;;;;22.80;18.33;;;;;;;4.53;78.46;97230.03;5091069;28;20080;-71
2022/04/05 09:19:11;;;;;;;16.70;12.27;;;;;;;4.59;78.24;97224.25;5092134;28;20060;-69
2022/04/05 09:21:58;;;;;;;18.13;10.68;;;;;;;4.66;78.00;97228.53;5092442;28;20032;-71
2022/04/05 09:24:34;;;;;;;21.58;12.65;;;;;;;4.71;77.28;97234.72;5091120;28;20504;-68
2022/04/05 09:27:00;;;;;;;25.17;12.02;;;;;;;4.82;77.99;97231.91;5092630;28;20031;-69
2022/04/05 09:29:59;;;;;;;17.60;11.32;;;;;;;5.00;77.56;97233.06;5092384;28;20066;-69
2022/04/05 09:32:40;;;;;;;22.83;12.18;;;;;;;5.16;77.07;97230.97;5047250;28;20040;-68
2022/04/05 09:35:06;;;;;;;36.30;18.38;;;;;;;5.34;77.17;97238.34;5091736;28;20070;-68
2022/04/05 09:37:36;;;;;;;17.27;11.48;;;;;;;5.56;77.22;97242.38;5091876;28;20016;-68
2022/04/05 09:40:34;;;;;;;22.48;10.98;;;;;;;5.68;75.86;97241.97;5092384;28;20046;-70
2022/04/05 09:43:12;;;;;;;17.20;9.65;;;;;;;5.78;74.83;97244.53;5091838;28;20044;-69
2022/04/05 09:46:00;;;;;;;13.57;7.75;;;;;;;5.88;73.91;97251.75;5083152;28;20028;-67
2022/04/05 09:48:35;;;;;;;13.43;7.13;;;;;;;5.92;73.52;97244.59;5092139;28;20035;-68
2022/04/05 09:51:10;;;;;;;16.13;8.50;;;;;;;6.03;74.03;97241.75;5091271;28;20032;-67
2022/04/05 09:53:39;;;;;;;12.75;6.95;;;;;;;6.15;72.92;97246.72;5089556;28;20058;-69
2022/04/05 09:56:29;;;;;;;9.38;6.32;;;;;;;6.21;72.54;97249.09;5090243;28;20054;-67
2022/04/05 09:59:03;;;;;;;;;;;;;;;6.22;71.42;97242.53;5091902;28;20123;-67
2022/04/05 10:01:30;;;;;;;7.85;5.00;;;;;;;6.28;70.07;97254.13;5086715;28;19942;-71
2022/04/05 10:03:57;;;;;;;6.50;4.60;;;;;;;6.23;69.47;97248.78;5091039;28;20032;-67
2022/04/05 10:06:23;;;;;;;8.63;5.45;;;;;;;6.23;69.84;97252.31;5086873;28;20064;-68
2022/04/05 10:08:48;;;;;;;9.60;5.07;;;;;;;6.30;69.62;97251.13;5086887;28;20063;-68
2022/04/05 10:11:14;;;;;;;8.95;5.10;;;;;;;6.44;69.72;97251.97;5088728;28;20059;-67
2022/04/05 10:13:40;;;;;;;7.32;4.55;;;;;;;6.51;69.65;97241.50;5089184;28;20028;-69
2022/04/05 10:16:08;;;;;;;7.25;5.25;;;;;;;6.51;68.86;97255.09;5089390;28;20081;-68
2022/04/05 10:18:34;;;;;;;9.50;5.07;;;;;;;6.44;68.46;97267.50;5091158;28;20020;-68
2022/04/05 10:21:01;;;;;;;7.10;4.93;;;;;;;6.33;67.68;97261.41;5091699;28;20078;-70
2022/04/05 10:23:27;;;;;;;7.32;5.03;;;;;;;6.26;67.91;97261.78;5090790;28;20032;-68
2022/04/05 10:25:53;;;;;;;7.95;4.63;;;;;;;6.23;68.56;97257.78;5091231;28;20450;-68
2022/04/05 10:28:34;;;;;;;10.38;5.82;;;;;;;6.21;68.68;97259.97;5091884;28;20054;-69
2022/04/05 10:31:24;;;;;;;6.32;4.40;;;;;;;6.15;67.78;97274.78;5091849;28;20134;-68
2022/04/05 10:34:14;;;;;;;11.88;6.10;;;;;;;6.15;68.75;97273.94;5089913;28;20023;-68
2022/04/05 10:36:41;;;;;;;8.02;4.75;;;;;;;6.10;67.48;97250.34;5090105;28;20036;-68
2022/04/05 10:39:22;;;;;;;9.77;5.95;;;;;;;6.03;67.27;97275.22;5091588;28;20524;-68
2022/04/05 10:42:10;;;;;;;8.02;4.82;;;;;;;6.05;67.89;97273.03;5091587;28;20381;-68
2022/04/05 10:44:36;;;;;;;8.10;5.30;;;;;;;6.10;67.67;97267.50;5091607;28;20043;-68
2022/04/05 10:47:06;;;;;;;8.43;5.20;;;;;;;6.11;67.59;97276.47;5091434;28;20531;-68
2022/04/05 10:49:44;;;;;;;11.15;6.20;;;;;;;6.08;67.85;97283.31;5090402;28;20044;-68
2022/04/05 10:52:18;;;;;;;8.73;5.80;;;;;;;6.06;68.25;97274.66;5089411;28;20060;-68
2022/04/05 10:55:04;;;;;;;5.35;4.28;;;;;;;6.05;67.85;97291.25;5087868;28;20047;-67
2022/04/05 10:57:34;;;;;;;4.68;3.33;;;;;;;5.95;66.37;97289.47;5087830;28;20089;-67
2022/04/05 11:00:33;;;;;;;7.72;4.47;;;;;;;5.88;67.47;97284.41;5093313;28;20612;-67
2022/04/05 11:02:58;;;;;;;7.40;5.97;;;;;;;5.82;67.71;97280.13;5046044;28;20051;-67
2022/04/05 11:05:27;;;;;;;5.70;3.90;;;;;;;5.77;66.98;97283.72;5087704;28;20036;-69
2022/04/05 11:08:03;;;;;;;7.63;4.10;;;;;;;5.74;67.04;97287.03;5087331;28;20379;-67
2022/04/05 11:10:50;;;;;;;11.10;8.07;;;;;;;5.74;67.45;97286.22;5079942;28;20085;-68
2022/04/05 11:13:18;;;;;;;5.93;4.18;;;;;;;5.73;67.56;97284.59;5089693;28;20115;-67
2022/04/05 11:15:54;;;;;;;10.95;6.60;;;;;;;5.76;68.36;97292.19;5086992;28;20020;-69
2022/04/05 11:18:30;;;;;;;6.63;4.47;;;;;;;5.79;68.31;97294.31;5089641;28;20102;-68
2022/04/05 11:20:57;;;;;;;7.28;4.85;;;;;;;5.84;67.93;97290.72;5090741;28;20032;-69
2022/04/05 11:23:47;;;;;;;5.85;4.55;;;;;;;5.90;67.95;97284.91;5089418;28;20032;-68
2022/04/05 11:26:33;;;;;;;6.28;4.70;;;;;;;5.97;68.11;97282.63;5086813;28;20034;-68
2022/04/05 11:28:59;;;;;;;6.90;4.85;;;;;;;6.04;67.81;97284.19;5089300;28;20553;-69
2022/04/05 11:31:33;;;;;;;5.55;4.20;;;;;;;6.13;66.88;97287.03;5089561;28;20111;-68
2022/04/05 11:33:59;;;;;;;6.28;4.65;;;;;;;6.23;67.53;97290.44;5089965;28;20030;-69